createdAt,value
2023-01-09T00:01:24.412Z,3.09
2023-01-09T00:04:10.461Z,3.01
2023-01-09T00:06:56.385Z,3.00
2023-01-09T00:09:42.464Z,2.96
2023-01-09T00:12:28.332Z,2.95
2023-01-09T00:15:14.023Z,2.92
2023-01-09T00:17:59.606Z,2.90
2023-01-09T00:20:45.161Z,2.87
2023-01-09T00:23:30.863Z,2.85
2023-01-09T00:26:18.706Z,2.81
2023-01-09T00:29:04.960Z,2.77
2023-01-09T00:31:50.660Z,2.78
2023-01-09T00:34:37.666Z,2.78
2023-01-09T00:37:23.805Z,2.78
2023-01-09T00:40:11.284Z,2.81
2023-01-09T00:42:57.283Z,2.83
2023-01-09T00:45:43.090Z,2.86
2023-01-09T00:48:29.730Z,2.88
2023-01-09T00:51:17.361Z,2.92
2023-01-09T00:54:04.236Z,2.95
2023-01-09T00:56:50.265Z,2.99
2023-01-09T00:59:35.958Z,3.01
2023-01-09T01:02:21.908Z,3.02
2023-01-09T01:05:27.189Z,3.01
2023-01-09T01:08:14.891Z,3.01
2023-01-09T01:11:09.347Z,3.01
2023-01-09T01:13:55.419Z,3.04
2023-01-09T01:16:41.328Z,3.05
2023-01-09T01:19:26.982Z,2.99
2023-01-09T01:22:12.598Z,3.03
2023-01-09T01:24:58.433Z,3.09
2023-01-09T01:27:44.707Z,3.08
2023-01-09T01:30:31.499Z,3.10
2023-01-09T01:33:17.564Z,3.10
2023-01-09T01:36:08.660Z,3.10
2023-01-09T01:38:54.678Z,3.10
2023-01-09T01:41:40.492Z,3.11
2023-01-09T01:45:03.814Z,3.12
2023-01-09T01:47:49.351Z,3.16
2023-01-09T01:50:45.866Z,3.15
2023-01-09T01:53:36.330Z,3.18
2023-01-09T01:56:29.188Z,3.19
2023-01-09T01:59:23.101Z,3.16
2023-01-09T02:02:09.869Z,3.15
2023-01-09T02:04:57.084Z,3.14
2023-01-09T02:07:47.616Z,3.15
2023-01-09T02:10:34.455Z,3.15
2023-01-09T02:13:20.620Z,3.13
2023-01-09T02:16:15.546Z,3.18
2023-01-09T02:19:35.758Z,3.18
2023-01-09T02:22:36.830Z,3.20
2023-01-09T02:25:31.998Z,3.26
2023-01-09T02:28:30.312Z,3.28
2023-01-09T02:31:44.726Z,3.29
2023-01-09T02:35:01.572Z,3.31
2023-01-09T02:38:12.291Z,3.31
2023-01-09T02:41:13.616Z,3.37
2023-01-09T02:44:31.980Z,3.38
2023-01-09T02:47:20.739Z,3.43
2023-01-09T02:50:13.776Z,3.46
2023-01-09T02:53:19.221Z,3.47
2023-01-09T02:56:11.214Z,3.49
2023-01-09T02:59:15.342Z,3.51
2023-01-09T03:02:39.549Z,3.49
2023-01-09T03:05:50.123Z,3.50
2023-01-09T03:08:43.646Z,3.51
2023-01-09T03:11:30.952Z,3.50
2023-01-09T03:14:21.132Z,3.51
2023-01-09T03:17:12.749Z,3.49
2023-01-09T03:20:01.199Z,3.48
2023-01-09T03:22:54.792Z,3.44
2023-01-09T03:25:40.762Z,3.50
2023-01-09T03:28:28.613Z,3.52
2023-01-09T03:31:15.086Z,3.55
2023-01-09T03:34:01.246Z,3.57
2023-01-09T03:36:46.910Z,3.56
2023-01-09T03:39:32.709Z,3.60
2023-01-09T03:42:18.772Z,3.61
2023-01-09T03:45:05.299Z,3.59
2023-01-09T03:47:52.964Z,3.61
2023-01-09T03:50:39.189Z,3.64
2023-01-09T03:53:26.982Z,3.64
2023-01-09T03:56:12.566Z,3.66
2023-01-09T03:58:58.178Z,3.67
2023-01-09T04:01:43.908Z,3.73
2023-01-09T04:04:29.755Z,3.70
2023-01-09T04:07:15.555Z,3.75
2023-01-09T04:10:01.442Z,3.74
2023-01-09T04:12:47.171Z,3.80
2023-01-09T04:15:32.862Z,3.82
2023-01-09T04:18:18.642Z,3.82
2023-01-09T04:21:04.324Z,3.85
2023-01-09T04:23:50.042Z,3.89
2023-01-09T04:26:35.696Z,3.90
2023-01-09T04:29:21.531Z,3.94
2023-01-09T04:32:07.609Z,4.01
2023-01-09T04:34:54.201Z,4.07
2023-01-09T04:37:39.828Z,4.09
2023-01-09T04:40:25.527Z,4.08
2023-01-09T04:43:11.290Z,4.15
2023-01-09T04:45:57.012Z,4.17
2023-01-09T04:48:43.506Z,4.21
2023-01-09T04:51:29.244Z,4.25
2023-01-09T04:54:15.040Z,4.28
2023-01-09T04:57:01.036Z,4.33
2023-01-09T04:59:46.923Z,4.35
2023-01-09T05:02:32.470Z,4.38
2023-01-09T05:05:18.489Z,4.41
2023-01-09T05:08:06.031Z,4.44
2023-01-09T05:10:51.927Z,4.49
2023-01-09T05:13:37.596Z,4.55
2023-01-09T05:16:23.319Z,4.59
2023-01-09T05:19:09.175Z,4.68
2023-01-09T05:21:54.936Z,4.72
2023-01-09T05:24:40.612Z,4.85
2023-01-09T05:27:27.365Z,4.91
2023-01-09T05:30:15.511Z,4.95
2023-01-09T05:33:03.300Z,5.03
2023-01-09T05:35:48.952Z,5.04
2023-01-09T05:38:34.811Z,5.11
2023-01-09T05:41:21.370Z,5.17
2023-01-09T05:44:07.912Z,5.20
2023-01-09T05:46:53.608Z,5.23
2023-01-09T05:49:39.104Z,5.31
2023-01-09T05:52:24.939Z,5.34
2023-01-09T05:55:11.513Z,5.35
2023-01-09T05:57:57.250Z,5.37
2023-01-09T06:00:43.066Z,5.41
2023-01-09T06:03:28.797Z,5.42
2023-01-09T06:06:14.680Z,5.47
2023-01-09T06:09:00.392Z,5.51
2023-01-09T06:11:46.101Z,5.51
2023-01-09T06:14:31.764Z,5.47
2023-01-09T06:17:17.331Z,5.54
2023-01-09T06:20:03.381Z,5.54
2023-01-09T06:22:52.038Z,5.58
2023-01-09T06:25:37.962Z,5.60
2023-01-09T06:28:23.616Z,5.66
2023-01-09T06:31:09.347Z,5.70
2023-01-09T06:33:54.977Z,5.71
2023-01-09T06:36:40.696Z,5.75
2023-01-09T06:39:26.417Z,5.77
2023-01-09T06:42:12.093Z,5.76
2023-01-09T06:45:01.405Z,5.77
2023-01-09T06:47:48.418Z,5.74
2023-01-09T06:50:34.825Z,5.76
2023-01-09T06:53:20.985Z,5.72
2023-01-09T06:56:06.859Z,5.73
2023-01-09T06:58:52.950Z,5.70
2023-01-09T07:01:39.932Z,5.71
2023-01-09T07:04:25.979Z,5.68
2023-01-09T07:07:11.838Z,5.74
2023-01-09T07:09:57.629Z,5.76
2023-01-09T07:12:43.432Z,5.77
2023-01-09T07:15:29.209Z,5.77
2023-01-09T07:18:14.761Z,5.83
2023-01-09T07:21:00.401Z,5.86
2023-01-09T07:23:46.119Z,5.90
2023-01-09T07:26:31.771Z,5.92
2023-01-09T07:29:17.558Z,5.96
2023-01-09T07:32:03.931Z,5.98
2023-01-09T07:34:51.672Z,6.01
2023-01-09T07:37:37.653Z,6.04
2023-01-09T07:40:23.710Z,6.06
2023-01-09T07:43:09.462Z,6.08
2023-01-09T07:45:55.314Z,6.10
2023-01-09T07:48:41.031Z,6.15
2023-01-09T07:51:26.585Z,6.26
2023-01-09T07:54:13.602Z,6.34
2023-01-09T07:56:59.243Z,6.42
2023-01-09T07:59:45.257Z,6.50
2023-01-09T08:02:31.230Z,6.57
2023-01-09T08:05:17.138Z,6.66
2023-01-09T08:08:03.110Z,6.69
2023-01-09T08:10:48.919Z,6.79
2023-01-09T08:13:35.119Z,6.82
2023-01-09T08:16:20.683Z,6.86
2023-01-09T08:19:06.482Z,6.89
2023-01-09T08:21:52.336Z,6.91
2023-01-09T08:24:38.001Z,6.95
2023-01-09T08:27:23.731Z,7.00
2023-01-09T08:30:10.416Z,7.03
2023-01-09T08:32:56.202Z,7.04
2023-01-09T08:35:44.053Z,7.09
2023-01-09T08:38:30.096Z,7.11
2023-01-09T08:41:35.445Z,7.12
2023-01-09T08:44:40.214Z,7.14
2023-01-09T08:47:27.382Z,7.16
2023-01-09T08:50:13.409Z,7.19
2023-01-09T08:52:59.098Z,7.22
2023-01-09T08:55:45.015Z,7.30
2023-01-09T08:58:30.917Z,7.36
2023-01-09T09:01:16.906Z,7.40
2023-01-09T09:04:05.368Z,7.48
2023-01-09T09:06:51.297Z,7.53
2023-01-09T09:09:37.009Z,7.59
2023-01-09T09:12:23.041Z,7.64
2023-01-09T09:15:12.699Z,7.70
2023-01-09T09:18:04.350Z,7.75
2023-01-09T09:20:50.143Z,7.78
2023-01-09T09:23:35.815Z,7.87
2023-01-09T09:26:21.478Z,7.89
2023-01-09T09:29:07.210Z,7.93
2023-01-09T09:31:53.445Z,7.96
2023-01-09T09:34:39.408Z,7.92
2023-01-09T09:37:25.122Z,8.03
2023-01-09T09:40:19.236Z,8.08
2023-01-09T09:43:57.781Z,8.13
2023-01-09T09:47:20.396Z,8.16
2023-01-09T09:50:34.361Z,8.15
2023-01-09T09:53:40.365Z,8.16
2023-01-09T09:56:27.986Z,8.18
2023-01-09T09:59:25.552Z,8.17
2023-01-09T10:02:17.028Z,8.23
2023-01-09T10:05:12.064Z,8.26
2023-01-09T10:08:15.357Z,8.25
2023-01-09T10:11:02.401Z,8.31
2023-01-09T10:14:22.875Z,8.38
2023-01-09T10:17:21.932Z,8.45
2023-01-09T10:20:12.357Z,8.51
2023-01-09T10:23:06.792Z,8.58
2023-01-09T10:25:58.570Z,8.64
2023-01-09T10:28:50.716Z,8.71
2023-01-09T10:32:14.096Z,8.77
2023-01-09T10:35:09.165Z,8.85
2023-01-09T10:37:57.762Z,8.86
2023-01-09T10:41:07.787Z,8.86
2023-01-09T10:44:18.077Z,8.87
2023-01-09T10:47:09.412Z,8.86
2023-01-09T10:49:55.980Z,8.87
2023-01-09T10:52:42.890Z,8.89
2023-01-09T10:55:44.243Z,8.89
2023-01-09T10:58:30.043Z,8.90
2023-01-09T11:01:24.305Z,8.89
2023-01-09T11:04:29.848Z,8.93
2023-01-09T11:07:22.355Z,8.96
2023-01-09T11:10:12.000Z,8.98
2023-01-09T11:13:17.813Z,9.02
2023-01-09T11:17:01.588Z,9.05
2023-01-09T11:20:18.059Z,9.08
2023-01-09T11:23:04.134Z,9.12
2023-01-09T11:25:55.957Z,9.14
2023-01-09T11:28:41.905Z,9.19
2023-01-09T11:31:29.631Z,9.22
2023-01-09T11:34:22.469Z,9.27
2023-01-09T11:37:12.443Z,9.32
2023-01-09T11:39:59.948Z,9.36
2023-01-09T11:43:21.614Z,9.36
2023-01-09T11:46:13.488Z,9.46
2023-01-09T11:49:00.161Z,9.43
2023-01-09T11:51:46.421Z,9.55
2023-01-09T11:54:35.181Z,9.54
2023-01-09T11:57:22.508Z,9.63
2023-01-09T12:00:26.025Z,9.63
2023-01-09T12:03:56.248Z,9.68
2023-01-09T12:07:16.286Z,9.71
2023-01-09T12:10:12.128Z,9.75
2023-01-09T12:13:08.138Z,9.79
2023-01-09T12:16:23.334Z,9.83
2023-01-09T12:19:34.359Z,9.89
2023-01-09T12:22:32.176Z,9.93
2023-01-09T12:25:29.157Z,9.98
2023-01-09T12:28:34.713Z,10.03
2023-01-09T12:31:24.304Z,10.12
2023-01-09T12:34:53.228Z,10.19
2023-01-09T12:37:51.380Z,10.35
2023-01-09T12:40:53.348Z,10.48
2023-01-09T12:43:58.443Z,10.57
2023-01-09T12:47:03.459Z,10.68
2023-01-09T12:49:53.851Z,10.80
2023-01-09T12:52:44.344Z,10.90
2023-01-09T12:55:34.572Z,10.99
2023-01-09T12:58:55.260Z,11.04
2023-01-09T13:01:46.217Z,11.10
2023-01-09T13:04:36.354Z,11.10
2023-01-09T13:07:26.302Z,11.13
2023-01-09T13:10:47.500Z,11.05
2023-01-09T13:13:45.688Z,11.04
2023-01-09T13:16:35.752Z,11.07
2023-01-09T13:19:40.034Z,11.07
2023-01-09T13:22:26.389Z,11.02
2023-01-09T13:25:25.539Z,11.05
2023-01-09T13:28:35.130Z,11.09
2023-01-09T13:31:48.828Z,11.05
2023-01-09T13:34:36.238Z,11.12
2023-01-09T13:37:27.959Z,11.14
2023-01-09T13:40:33.112Z,11.15
2023-01-09T13:43:19.151Z,11.21
2023-01-09T13:46:05.603Z,11.21
2023-01-09T13:48:51.418Z,11.21
2023-01-09T13:51:57.041Z,11.20
2023-01-09T13:54:55.622Z,11.15
2023-01-09T13:58:14.968Z,11.12
2023-01-09T14:01:04.724Z,11.08
2023-01-09T14:04:27.587Z,11.02
2023-01-09T14:07:25.413Z,10.99
2023-01-09T14:10:24.497Z,10.97
2023-01-09T14:13:38.409Z,10.89
2023-01-09T14:16:27.117Z,10.92
2023-01-09T14:19:16.437Z,10.91
2023-01-09T14:22:02.896Z,10.86
2023-01-09T14:24:52.705Z,10.90
2023-01-09T14:28:06.815Z,10.85
2023-01-09T14:30:53.790Z,10.87
2023-01-09T14:33:40.033Z,10.83
2023-01-09T14:36:29.464Z,10.85
2023-01-09T14:39:15.682Z,10.82
2023-01-09T14:42:15.685Z,10.80
2023-01-09T14:45:18.385Z,10.73
2023-01-09T14:48:06.355Z,10.64
2023-01-09T14:50:55.877Z,10.58
2023-01-09T14:53:43.208Z,10.51
2023-01-09T14:56:31.233Z,10.40
2023-01-09T14:59:19.350Z,10.32
2023-01-09T15:02:09.804Z,10.26
2023-01-09T15:04:59.147Z,10.17
2023-01-09T15:08:01.463Z,10.13
2023-01-09T15:10:54.232Z,10.14
2023-01-09T15:13:46.445Z,10.10
2023-01-09T15:16:32.943Z,10.06
2023-01-09T15:19:19.948Z,10.04
2023-01-09T15:22:22.807Z,9.93
2023-01-09T15:25:27.327Z,9.92
2023-01-09T15:28:42.060Z,9.88
2023-01-09T15:31:28.843Z,9.87
2023-01-09T15:34:18.803Z,9.84
2023-01-09T15:37:05.196Z,9.82
2023-01-09T15:39:51.127Z,9.82
2023-01-09T15:42:57.276Z,9.82
2023-01-09T15:45:45.330Z,9.77
2023-01-09T15:48:34.209Z,9.77
2023-01-09T15:51:20.734Z,9.76
2023-01-09T15:54:06.369Z,9.74
2023-01-09T15:56:52.342Z,9.71
2023-01-09T15:59:38.737Z,9.68
2023-01-09T16:02:44.936Z,9.66
2023-01-09T16:05:33.177Z,9.63
2023-01-09T16:08:40.114Z,9.61
2023-01-09T16:11:29.888Z,9.61
2023-01-09T16:14:22.914Z,9.60
2023-01-09T16:17:17.728Z,9.60
2023-01-09T16:20:25.117Z,9.58
2023-01-09T16:23:25.371Z,9.58
2023-01-09T16:26:13.684Z,9.57
2023-01-09T16:29:40.256Z,9.53
2023-01-09T16:32:48.127Z,9.54
2023-01-09T16:35:34.885Z,9.54
2023-01-09T16:38:22.586Z,9.54
2023-01-09T16:41:35.256Z,9.52
2023-01-09T16:44:21.277Z,9.53
2023-01-09T16:47:11.849Z,9.52
2023-01-09T16:49:58.068Z,9.50
2023-01-09T16:52:45.824Z,9.49
2023-01-09T16:55:32.326Z,9.50
2023-01-09T16:58:22.956Z,9.49
2023-01-09T17:01:10.476Z,9.48
2023-01-09T17:03:56.729Z,9.46
2023-01-09T17:06:43.083Z,9.48
2023-01-09T17:09:32.956Z,9.50
2023-01-09T17:12:21.017Z,9.49
2023-01-09T17:15:08.174Z,9.50
2023-01-09T17:17:54.001Z,9.49
2023-01-09T17:20:41.291Z,9.52
2023-01-09T17:23:26.864Z,9.48
2023-01-09T17:26:40.106Z,9.49
2023-01-09T17:29:30.182Z,9.47
2023-01-09T17:32:17.234Z,9.44
2023-01-09T17:35:03.429Z,9.44
2023-01-09T17:37:49.466Z,9.42
2023-01-09T17:40:35.238Z,9.37
2023-01-09T17:43:21.414Z,9.37
2023-01-09T17:46:10.757Z,9.34
2023-01-09T17:48:57.327Z,9.31
2023-01-09T17:51:43.142Z,9.28
2023-01-09T17:54:29.015Z,9.24
2023-01-09T17:57:16.660Z,9.20
2023-01-09T18:00:06.520Z,9.18
2023-01-09T18:02:53.167Z,9.14
2023-01-09T18:05:38.954Z,9.16
2023-01-09T18:08:24.835Z,9.14
2023-01-09T18:11:19.505Z,9.09
2023-01-09T18:14:05.397Z,9.10
2023-01-09T18:16:51.149Z,9.08
2023-01-09T18:19:36.809Z,9.06
2023-01-09T18:22:22.550Z,9.04
2023-01-09T18:25:08.722Z,9.01
2023-01-09T18:27:54.485Z,9.03
2023-01-09T18:30:40.334Z,9.02
2023-01-09T18:33:26.017Z,9.00
2023-01-09T18:36:12.159Z,8.97
2023-01-09T18:39:00.123Z,8.99
2023-01-09T18:41:45.744Z,8.95
2023-01-09T18:44:31.393Z,8.97
2023-01-09T18:47:17.028Z,8.97
2023-01-09T18:50:02.706Z,8.97
2023-01-09T18:52:48.502Z,8.97
2023-01-09T18:55:36.507Z,8.98
2023-01-09T18:58:22.475Z,8.97
2023-01-09T19:01:08.397Z,8.99
2023-01-09T19:03:56.080Z,9.01
2023-01-09T19:06:41.821Z,9.02
2023-01-09T19:09:28.085Z,9.03
2023-01-09T19:12:14.042Z,9.03
2023-01-09T19:15:00.456Z,9.03
2023-01-09T19:17:47.111Z,9.03
2023-01-09T19:20:33.233Z,9.03
2023-01-09T19:23:20.001Z,8.97
2023-01-09T19:26:08.622Z,8.95
2023-01-09T19:28:55.561Z,8.90
2023-01-09T19:31:41.996Z,8.87
2023-01-09T19:34:28.364Z,8.79
2023-01-09T19:37:14.348Z,8.77
2023-01-09T19:40:00.302Z,8.68
2023-01-09T19:42:45.980Z,8.67
2023-01-09T19:45:31.733Z,8.67
2023-01-09T19:48:17.789Z,8.61
2023-01-09T19:51:05.501Z,8.60
2023-01-09T19:56:45.720Z,8.61
2023-01-09T19:59:31.819Z,8.61
2023-01-09T20:02:17.768Z,8.61
2023-01-09T20:05:03.909Z,8.60
2023-01-09T20:07:55.991Z,8.60
2023-01-09T20:10:42.011Z,8.60
2023-01-09T20:13:27.982Z,8.62
2023-01-09T20:16:17.058Z,8.63
2023-01-09T20:19:07.700Z,8.63
2023-01-09T20:21:53.586Z,8.63
2023-01-09T20:24:39.422Z,8.61
2023-01-09T20:27:25.541Z,8.62
2023-01-09T20:30:11.770Z,8.62
2023-01-09T20:32:58.771Z,8.60
2023-01-09T20:35:45.931Z,8.62
2023-01-09T20:38:32.945Z,8.61
2023-01-09T20:41:25.561Z,8.58
2023-01-09T20:44:13.545Z,8.57
2023-01-09T20:46:59.543Z,8.56
2023-01-09T20:49:45.379Z,8.53
2023-01-09T20:52:30.968Z,8.57
2023-01-09T20:55:16.779Z,8.59
2023-01-09T20:58:02.618Z,8.58
2023-01-09T21:00:48.290Z,8.64
2023-01-09T21:03:34.575Z,8.66
2023-01-09T21:06:21.948Z,8.67
2023-01-09T21:09:07.942Z,8.62
2023-01-09T21:11:54.130Z,8.66
2023-01-09T21:14:39.895Z,8.68
2023-01-09T21:17:25.643Z,8.68
2023-01-09T21:20:14.086Z,8.65
2023-01-09T21:23:00.411Z,8.64
2023-01-09T21:25:48.893Z,8.64
2023-01-09T21:28:43.729Z,8.69
2023-01-09T21:31:34.837Z,8.70
2023-01-09T21:34:20.985Z,8.70
2023-01-09T21:37:07.206Z,8.74
2023-01-09T21:39:52.836Z,8.73
2023-01-09T21:42:57.133Z,8.75
2023-01-09T21:46:01.907Z,8.77
2023-01-09T21:48:47.791Z,8.77
2023-01-09T21:51:39.353Z,8.80
2023-01-09T21:54:25.470Z,8.78
2023-01-09T21:57:11.520Z,8.82
2023-01-09T21:59:57.207Z,8.79
2023-01-09T22:02:44.041Z,8.87
2023-01-09T22:05:29.861Z,8.87
2023-01-09T22:08:15.642Z,8.87
2023-01-09T22:11:01.543Z,8.91
2023-01-09T22:13:48.400Z,8.90
2023-01-09T22:16:34.441Z,8.97
2023-01-09T22:19:20.472Z,8.97
2023-01-09T22:22:08.568Z,8.97
2023-01-09T22:24:54.560Z,8.97
2023-01-09T22:27:40.385Z,8.97
2023-01-09T22:30:26.085Z,9.01
2023-01-09T22:33:11.800Z,9.02
2023-01-09T22:35:57.452Z,9.02
2023-01-09T22:38:43.145Z,9.04
2023-01-09T22:41:32.224Z,9.06
2023-01-09T22:44:19.155Z,9.07
2023-01-09T22:47:05.119Z,9.09
2023-01-09T22:49:53.443Z,9.10
2023-01-09T22:52:39.709Z,9.09
2023-01-09T22:55:25.309Z,9.09
2023-01-09T22:58:10.931Z,9.10
2023-01-09T23:00:56.934Z,9.09
2023-01-09T23:03:42.842Z,9.13
2023-01-09T23:06:28.569Z,9.13
2023-01-09T23:09:14.222Z,9.15
2023-01-09T23:12:03.130Z,9.14
2023-01-09T23:14:49.599Z,9.17
2023-01-09T23:17:36.488Z,9.17
2023-01-09T23:20:22.106Z,9.18
2023-01-09T23:23:07.971Z,9.19
2023-01-09T23:25:56.345Z,9.18
2023-01-09T23:28:42.099Z,9.19
2023-01-09T23:31:27.829Z,9.22
2023-01-09T23:34:15.654Z,9.22
2023-01-09T23:37:01.638Z,9.23
2023-01-09T23:39:47.491Z,9.21
2023-01-09T23:42:51.561Z,9.24
2023-01-09T23:45:42.303Z,9.23
2023-01-09T23:48:28.916Z,9.23
2023-01-09T23:51:14.822Z,9.16
2023-01-09T23:54:00.465Z,9.25
2023-01-09T23:56:46.175Z,9.24
2023-01-09T23:59:32.067Z,9.23
